Time;durP1;ratioP1;P1;durP2;ratioP2;P2;SDS_P1;SDS_P2;PMS_P1;PMS_P2;Temp;Humidity;BMP_temperature;BMP_pressure;BME280_temperature;BME280_humidity;BME280_pressure;Samples;Min_cycle;Max_cycle;Signal;HPM_P1;HPM_P2
2022/03/02 00:02:05;;;;;;;1.47;1.37;;;4.90;98.30;;;;;;4911191;29;20447;-72
2022/03/02 00:04:31;;;;;;;0.83;0.83;;;4.90;98.20;;;;;;4917427;29;20910;-72
2022/03/02 00:06:56;;;;;;;0.70;0.50;;;4.90;98.10;;;;;;4917717;29;20206;-72
2022/03/02 00:09:22;;;;;;;0.70;0.50;;;4.90;97.90;;;;;;4916551;29;20649;-72
2022/03/02 00:11:47;;;;;;;1.43;1.33;;;4.80;97.70;;;;;;4897658;29;20215;-72
2022/03/02 00:14:13;;;;;;;1.90;1.43;;;4.80;97.50;;;;;;4901092;29;20176;-72
2022/03/02 00:16:39;;;;;;;0.80;0.60;;;4.80;97.50;;;;;;4931573;28;20186;-72
2022/03/02 00:19:04;;;;;;;0.80;0.70;;;4.70;97.30;;;;;;4917265;29;20203;-72
2022/03/02 00:21:30;;;;;;;1.63;1.53;;;4.70;97.20;;;;;;4917167;29;20186;-72
2022/03/02 00:23:56;;;;;;;1.07;0.97;;;4.60;97.20;;;;;;4931058;28;20435;-72
2022/03/02 00:26:21;;;;;;;0.70;0.50;;;4.60;97.30;;;;;;4917012;29;20183;-72
2022/03/02 00:28:47;;;;;;;0.70;0.60;;;4.50;97.50;;;;;;4908722;29;20275;-72
2022/03/02 00:31:12;;;;;;;1.53;1.43;;;4.50;97.50;;;;;;4897905;29;20185;-72
2022/03/02 00:33:39;;;;;;;0.70;0.50;;;4.40;97.90;;;;;;4899556;29;20216;-72
2022/03/02 00:36:05;;;;;;;1.23;1.13;;;4.40;98.70;;;;;;4931561;28;20191;-72
2022/03/02 00:38:30;;;;;;;1.37;1.27;;;4.40;99.10;;;;;;4916699;29;20550;-72
2022/03/02 00:40:56;;;;;;;1.10;1.00;;;4.40;99.50;;;;;;4916661;29;20476;-72
2022/03/02 00:43:22;;;;;;;0.70;0.50;;;4.40;99.90;;;;;;4915377;29;20210;-72
2022/03/02 00:45:47;;;;;;;1.37;1.27;;;4.40;99.90;;;;;;4915136;29;20251;-72
2022/03/02 00:48:13;;;;;;;0.70;0.50;;;4.40;99.90;;;;;;4897826;29;20190;-72
2022/03/02 00:50:41;;;;;;;0.70;0.60;;;4.40;99.90;;;;;;4900900;29;20267;-72
2022/03/02 00:53:07;;;;;;;1.17;1.07;;;4.40;99.90;;;;;;4907683;29;20456;-72
2022/03/02 00:55:34;;;;;;;0.90;0.60;;;4.40;99.90;;;;;;4898738;29;20484;-72
2022/03/02 00:58:00;;;;;;;1.77;1.37;;;4.40;99.90;;;;;;4897580;29;20412;-72
2022/03/02 01:00:26;;;;;;;0.90;0.70;;;4.40;99.90;;;;;;4897330;29;20428;-72
2022/03/02 01:02:52;;;;;;;2.10;2.00;;;4.40;98.90;;;;;;4899603;29;20482;-72
2022/03/02 01:05:18;;;;;;;0.87;0.67;;;4.40;98.40;;;;;;4915666;29;20452;-72
2022/03/02 01:07:43;;;;;;;0.80;0.63;;;4.40;97.70;;;;;;4916339;29;20191;-72
2022/03/02 01:10:09;;;;;;;0.70;0.50;;;4.40;97.40;;;;;;4916241;29;20175;-72
2022/03/02 01:12:35;;;;;;;2.07;0.73;;;4.40;97.30;;;;;;4915925;29;20700;-72
2022/03/02 01:15:01;;;;;;;1.37;1.23;;;4.40;97.40;;;;;;4909015;29;20206;-72
2022/03/02 01:17:27;;;;;;;0.73;0.60;;;4.30;97.40;;;;;;4916232;29;20502;-72
2022/03/02 01:19:53;;;;;;;1.00;0.70;;;4.30;97.50;;;;;;4930835;28;20973;-72
2022/03/02 01:22:19;;;;;;;0.80;0.67;;;4.30;97.50;;;;;;4926728;28;20192;-72
2022/03/02 01:24:45;;;;;;;0.70;0.50;;;4.20;97.20;;;;;;4909937;29;20190;-72
2022/03/02 01:27:10;;;;;;;0.70;0.40;;;4.10;96.90;;;;;;4915251;29;20432;-72
2022/03/02 01:29:36;;;;;;;0.70;0.50;;;4.10;96.70;;;;;;4914689;29;20932;-72
2022/03/02 01:32:05;;;;;;;0.70;0.57;;;4.00;96.20;;;;;;4914478;29;20199;-72
2022/03/02 01:34:31;;;;;;;1.10;0.77;;;4.00;95.80;;;;;;4915885;29;20661;-72
2022/03/02 01:36:57;;;;;;;0.70;0.50;;;3.90;96.10;;;;;;4914678;29;20474;-72
2022/03/02 01:39:22;;;;;;;1.90;1.80;;;3.90;96.40;;;;;;4900776;29;20298;-72
2022/03/02 01:41:48;;;;;;;0.70;0.47;;;3.80;96.70;;;;;;4896639;29;20199;-72
2022/03/02 01:44:14;;;;;;;1.37;1.27;;;3.80;97.20;;;;;;4897007;29;20514;-72
2022/03/02 01:46:40;;;;;;;1.10;0.60;;;3.70;97.60;;;;;;4910675;29;20486;-72
2022/03/02 01:49:06;;;;;;;0.70;0.50;;;3.60;98.10;;;;;;4901131;29;20190;-72
2022/03/02 01:51:32;;;;;;;1.67;1.57;;;3.50;98.70;;;;;;4911202;29;20439;-72
2022/03/02 01:53:58;;;;;;;0.70;0.50;;;3.50;99.00;;;;;;4915486;29;20462;-72
2022/03/02 01:56:24;;;;;;;0.70;0.50;;;3.40;99.00;;;;;;4915750;29;20467;-72
2022/03/02 01:58:49;;;;;;;0.70;0.50;;;3.30;99.00;;;;;;4904250;29;20211;-72
2022/03/02 02:01:16;;;;;;;0.70;0.50;;;3.30;99.40;;;;;;4911086;29;20176;-72
2022/03/02 02:03:42;;;;;;;0.70;0.50;;;3.20;99.90;;;;;;4912826;29;20235;-72
2022/03/02 02:06:09;;;;;;;0.70;0.40;;;3.10;99.90;;;;;;4930102;28;20482;-72
2022/03/02 02:08:35;;;;;;;1.33;1.23;;;3.00;99.90;;;;;;4914327;29;20471;-72
2022/03/02 02:11:02;;;;;;;1.77;1.23;;;3.00;99.90;;;;;;4915186;29;21041;-72
2022/03/02 02:13:33;;;;;;;1.63;0.70;;;2.90;99.90;;;;;;4915151;29;20458;-72
2022/03/02 02:15:59;;;;;;;0.70;0.50;;;2.90;99.90;;;;;;4915152;29;20430;-72
2022/03/02 02:18:25;;;;;;;0.70;0.50;;;2.80;99.90;;;;;;4905044;29;20462;-72
2022/03/02 02:20:51;;;;;;;0.70;0.60;;;2.70;99.90;;;;;;4896541;29;20470;-72
2022/03/02 02:23:16;;;;;;;0.70;0.47;;;2.70;99.90;;;;;;4914045;29;20207;-72
2022/03/02 02:25:42;;;;;;;2.73;1.60;;;2.60;99.90;;;;;;4915270;29;20218;-72
2022/03/02 02:28:12;;;;;;;0.70;0.50;;;2.50;99.90;;;;;;4929898;28;20245;-72
2022/03/02 02:30:39;;;;;;;0.80;0.70;;;2.50;99.90;;;;;;4914063;29;20179;-72
2022/03/02 02:33:05;;;;;;;0.70;0.50;;;2.40;99.90;;;;;;4915410;29;20574;-71
2022/03/02 02:35:32;;;;;;;1.47;0.80;;;2.40;99.90;;;;;;4918650;29;20430;-71
2022/03/02 02:37:58;;;;;;;0.70;0.40;;;2.30;99.90;;;;;;4917260;29;20438;-71
2022/03/02 02:40:26;;;;;;;0.70;0.40;;;2.30;99.90;;;;;;4914525;29;20952;-72
2022/03/02 02:42:51;;;;;;;0.70;0.50;;;2.30;99.90;;;;;;4900004;29;20433;-72
2022/03/02 02:45:20;;;;;;;0.77;0.63;;;2.20;99.90;;;;;;4899933;29;20914;-72
2022/03/02 02:47:54;;;;;;;2.40;1.10;;;2.20;99.90;;;;;;4930574;29;20180;-72
2022/03/02 02:50:19;;;;;;;0.80;0.60;;;2.20;99.90;;;;;;4903095;29;20441;-72
2022/03/02 02:52:46;;;;;;;0.80;0.70;;;2.10;99.90;;;;;;4899692;29;20428;-71
2022/03/02 02:55:13;;;;;;;0.73;0.63;;;2.10;99.90;;;;;;4899911;29;20421;-72
2022/03/02 02:57:39;;;;;;;0.80;0.70;;;2.10;99.90;;;;;;4907426;29;20458;-71
2022/03/02 03:00:09;;;;;;;0.70;0.47;;;2.10;99.90;;;;;;4918352;29;20473;-71
2022/03/02 03:02:35;;;;;;;0.70;0.50;;;2.10;99.90;;;;;;4918139;29;20191;-71
2022/03/02 03:05:01;;;;;;;0.70;0.50;;;2.10;99.90;;;;;;4918405;29;20464;-71
2022/03/02 03:07:26;;;;;;;2.30;1.33;;;2.10;99.90;;;;;;4917032;29;20190;-73
2022/03/02 03:09:52;;;;;;;0.70;0.43;;;2.20;99.90;;;;;;4917064;29;20199;-72
2022/03/02 03:12:17;;;;;;;0.97;0.90;;;2.20;99.90;;;;;;4917938;29;20223;-72
2022/03/02 03:14:43;;;;;;;0.70;0.43;;;2.20;99.90;;;;;;4933178;28;20202;-72
2022/03/02 03:17:08;;;;;;;0.70;0.40;;;2.20;99.90;;;;;;4918431;29;20234;-72
2022/03/02 03:19:34;;;;;;;0.70;0.40;;;2.30;99.90;;;;;;4918259;29;20223;-72
2022/03/02 03:22:07;;;;;;;0.70;0.40;;;2.30;99.90;;;;;;4917567;29;20202;-72
2022/03/02 03:24:35;;;;;;;0.70;0.40;;;2.30;99.90;;;;;;4918142;29;20427;-72
2022/03/02 03:27:01;;;;;;;0.70;0.50;;;2.30;99.90;;;;;;4913255;29;20429;-70
2022/03/02 03:29:27;;;;;;;1.43;0.93;;;2.40;99.90;;;;;;4899321;29;20451;-72
2022/03/02 03:31:52;;;;;;;0.70;0.47;;;2.40;99.90;;;;;;4898850;29;20248;-72
2022/03/02 03:34:18;;;;;;;0.70;0.50;;;2.50;99.90;;;;;;4904615;29;20182;-72
2022/03/02 03:36:44;;;;;;;1.77;1.67;;;2.50;99.90;;;;;;4911074;29;20637;-71
2022/03/02 03:39:09;;;;;;;0.80;0.70;;;2.60;99.90;;;;;;4917986;29;20588;-71
2022/03/02 03:41:35;;;;;;;0.70;0.40;;;2.70;99.90;;;;;;4917675;29;20419;-72
2022/03/02 03:44:01;;;;;;;1.87;1.23;;;2.70;99.90;;;;;;4917667;29;20179;-72
2022/03/02 03:46:27;;;;;;;1.43;0.67;;;2.70;99.90;;;;;;4917539;29;20186;-71
2022/03/02 03:48:53;;;;;;;0.70;0.40;;;2.80;99.90;;;;;;4917832;29;20411;-72
2022/03/02 03:51:19;;;;;;;0.70;0.50;;;2.80;99.90;;;;;;4917496;29;20416;-72
2022/03/02 03:53:45;;;;;;;0.90;0.90;;;2.80;99.90;;;;;;4917729;29;20565;-72
2022/03/02 03:56:10;;;;;;;1.83;1.70;;;2.90;99.90;;;;;;4917738;29;20415;-72
2022/03/02 03:58:36;;;;;;;4.50;3.33;;;2.90;99.90;;;;;;4917352;29;20208;-72
2022/03/02 04:01:02;;;;;;;0.70;0.50;;;2.90;99.90;;;;;;4917384;29;20168;-72
2022/03/02 04:03:27;;;;;;;1.20;1.10;;;3.00;99.90;;;;;;4900058;29;20560;-72
2022/03/02 04:05:53;;;;;;;0.70;0.50;;;3.00;99.90;;;;;;4898707;29;20408;-72
2022/03/02 04:08:20;;;;;;;0.70;0.53;;;3.10;99.90;;;;;;4898603;29;20199;-72
2022/03/02 04:10:45;;;;;;;0.70;0.40;;;3.10;99.90;;;;;;4910709;29;20186;-72
2022/03/02 04:13:14;;;;;;;0.70;0.50;;;3.10;99.90;;;;;;4917314;29;20439;-71
2022/03/02 04:15:40;;;;;;;0.70;0.50;;;3.20;99.90;;;;;;4931851;28;20187;-72
2022/03/02 04:18:06;;;;;;;0.70;0.50;;;3.30;99.90;;;;;;4916803;29;20434;-72
2022/03/02 04:20:33;;;;;;;0.70;0.50;;;3.30;99.90;;;;;;4931633;29;20431;-72
2022/03/02 04:22:58;;;;;;;0.70;0.40;;;3.40;99.90;;;;;;4905388;29;20458;-72
2022/03/02 04:25:24;;;;;;;0.70;0.50;;;3.40;99.90;;;;;;4912661;29;20427;-72
2022/03/02 04:27:49;;;;;;;1.20;0.67;;;3.50;99.90;;;;;;4904036;29;20262;-72
2022/03/02 04:30:15;;;;;;;6.00;0.90;;;3.50;99.90;;;;;;4917093;29;20265;-72
2022/03/02 04:32:41;;;;;;;0.70;0.50;;;3.50;99.90;;;;;;4916733;29;20252;-73
2022/03/02 04:35:09;;;;;;;1.77;1.47;;;3.60;99.90;;;;;;4917006;29;20270;-72
2022/03/02 04:37:35;;;;;;;0.70;0.53;;;3.60;99.90;;;;;;4916840;29;21094;-72
2022/03/02 04:40:00;;;;;;;0.70;0.43;;;3.70;99.90;;;;;;4916731;29;20541;-72
2022/03/02 04:42:26;;;;;;;0.70;0.50;;;3.70;99.90;;;;;;4915934;29;20206;-71
2022/03/02 04:44:52;;;;;;;0.80;0.70;;;3.70;99.90;;;;;;4916773;29;20175;-71
2022/03/02 04:47:17;;;;;;;1.60;1.50;;;3.70;99.90;;;;;;4916583;29;20206;-71
2022/03/02 04:49:43;;;;;;;0.80;0.77;;;3.70;99.90;;;;;;4931547;28;20531;-71
2022/03/02 04:52:08;;;;;;;0.80;0.77;;;3.80;99.90;;;;;;4916364;29;20195;-72
2022/03/02 04:57:18;;;;;;;1.93;1.70;;;3.80;99.90;;;;;;4897235;29;20191;-72
2022/03/02 04:59:43;;;;;;;1.57;0.90;;;3.80;99.90;;;;;;4907040;29;20985;-72
2022/03/02 05:02:09;;;;;;;0.70;0.50;;;3.80;99.90;;;;;;4916242;29;20270;-73
2022/03/02 05:04:34;;;;;;;1.37;1.27;;;3.80;99.90;;;;;;4916429;29;20175;-72
2022/03/02 05:07:00;;;;;;;0.87;0.87;;;3.80;99.90;;;;;;4916406;29;20668;-72
2022/03/02 05:09:25;;;;;;;0.70;0.50;;;3.70;99.90;;;;;;4916376;29;20695;-72
2022/03/02 05:11:51;;;;;;;0.70;0.50;;;3.70;99.90;;;;;;4908322;29;20202;-72
2022/03/02 05:14:17;;;;;;;3.20;2.97;;;3.70;99.90;;;;;;4916253;29;20181;-72
2022/03/02 05:16:42;;;;;;;1.30;0.90;;;3.70;99.90;;;;;;4916117;29;20518;-71
2022/03/02 05:19:08;;;;;;;0.70;0.50;;;3.70;99.90;;;;;;4930742;28;20563;-71
2022/03/02 05:21:33;;;;;;;0.80;0.60;;;3.70;99.90;;;;;;4915959;29;20182;-71
2022/03/02 05:23:59;;;;;;;0.70;0.40;;;3.70;99.90;;;;;;4904913;29;20176;-71
2022/03/02 05:26:24;;;;;;;0.70;0.50;;;3.70;99.90;;;;;;4897177;29;20172;-71
2022/03/02 05:28:50;;;;;;;2.03;1.23;;;3.70;99.90;;;;;;4897228;29;20179;-71
2022/03/02 05:31:15;;;;;;;0.70;0.50;;;3.70;99.90;;;;;;4896945;29;20726;-71
2022/03/02 05:33:41;;;;;;;1.73;1.43;;;3.70;99.90;;;;;;4897203;29;20582;-71
2022/03/02 05:36:06;;;;;;;0.70;0.43;;;3.70;99.90;;;;;;4910209;29;20186;-71
2022/03/02 05:38:32;;;;;;;0.70;0.50;;;3.70;99.90;;;;;;4915698;29;20199;-72
2022/03/02 05:40:57;;;;;;;2.20;1.43;;;3.70;99.90;;;;;;4915468;29;20178;-72
2022/03/02 05:43:23;;;;;;;0.70;0.47;;;3.70;99.90;;;;;;4916098;29;20187;-72
2022/03/02 05:45:48;;;;;;;0.70;0.50;;;3.70;99.90;;;;;;4915908;29;20182;-72
2022/03/02 05:48:14;;;;;;;0.70;0.50;;;3.70;99.90;;;;;;4915968;29;20558;-72
2022/03/02 05:50:40;;;;;;;0.80;0.60;;;3.70;99.90;;;;;;4913802;29;20168;-72
2022/03/02 05:53:05;;;;;;;0.70;0.50;;;3.70;99.90;;;;;;4900797;29;20689;-72
2022/03/02 05:55:31;;;;;;;0.70;0.50;;;3.70;99.90;;;;;;4915552;29;20431;-71
2022/03/02 05:57:56;;;;;;;0.70;0.47;;;3.70;99.90;;;;;;4915702;29;20179;-71
2022/03/02 06:00:22;;;;;;;0.80;0.60;;;3.60;99.90;;;;;;4915523;29;20190;-72
2022/03/02 06:02:47;;;;;;;2.40;1.20;;;3.60;99.90;;;;;;4915323;29;20202;-71
2022/03/02 06:05:14;;;;;;;0.87;0.80;;;3.60;99.90;;;;;;4915062;29;20317;-71
2022/03/02 06:07:40;;;;;;;0.70;0.47;;;3.60;99.90;;;;;;4916343;29;20187;-71
2022/03/02 06:10:06;;;;;;;0.70;0.50;;;3.60;99.90;;;;;;4919549;29;20463;-71
2022/03/02 06:12:32;;;;;;;0.70;0.50;;;3.60;99.90;;;;;;4919186;29;20446;-71
2022/03/02 06:14:58;;;;;;;0.70;0.50;;;3.60;99.90;;;;;;4900936;29;20432;-71
2022/03/02 06:17:24;;;;;;;0.70;0.50;;;3.70;99.90;;;;;;4900567;29;20194;-71
2022/03/02 06:19:49;;;;;;;0.80;0.70;;;3.60;99.90;;;;;;4911621;29;20214;-71
2022/03/02 06:22:17;;;;;;;0.70;0.50;;;3.70;99.90;;;;;;4918851;29;21020;-71
2022/03/02 06:24:43;;;;;;;0.97;0.87;;;3.70;99.90;;;;;;4919080;29;20179;-72
2022/03/02 06:27:08;;;;;;;2.30;2.20;;;3.70;99.90;;;;;;4919373;29;20418;-72
2022/03/02 06:29:34;;;;;;;1.23;1.13;;;3.70;99.90;;;;;;4919228;29;20422;-72
2022/03/02 06:31:59;;;;;;;1.33;1.23;;;3.70;99.90;;;;;;4918654;29;20230;-71
2022/03/02 06:34:26;;;;;;;0.70;0.50;;;3.70;99.90;;;;;;4918903;29;20194;-71
2022/03/02 06:36:51;;;;;;;1.53;1.43;;;3.70;99.90;;;;;;4919155;29;20207;-71
2022/03/02 06:39:19;;;;;;;1.17;1.07;;;3.70;99.90;;;;;;4918796;29;20517;-72
2022/03/02 06:41:59;;;;;;;0.80;0.60;;;3.80;99.90;;;;;;4918709;29;20571;-71
2022/03/02 06:44:31;;;;;;;1.47;1.37;;;3.80;99.90;;;;;;4918899;29;20407;-72
2022/03/02 06:47:09;;;;;;;1.63;1.03;;;3.80;99.90;;;;;;4917527;29;20947;-72
2022/03/02 06:50:06;;;;;;;0.70;0.50;;;3.80;99.90;;;;;;4916776;29;20458;-72
2022/03/02 06:52:41;;;;;;;0.70;0.50;;;3.90;99.90;;;;;;4900567;29;20471;-72
2022/03/02 06:55:12;;;;;;;0.70;0.50;;;3.90;99.90;;;;;;4899901;29;20436;-72
2022/03/02 06:57:38;;;;;;;1.23;1.13;;;4.00;99.90;;;;;;4899871;29;20438;-73
2022/03/02 07:00:12;;;;;;;0.70;0.50;;;4.00;99.90;;;;;;4917102;29;20879;-72
2022/03/02 07:02:45;;;;;;;2.80;0.77;;;4.10;99.90;;;;;;4918279;29;20441;-72
2022/03/02 07:05:10;;;;;;;3.00;1.00;;;4.20;99.90;;;;;;4918589;29;20451;-72
2022/03/02 07:07:37;;;;;;;0.87;0.87;;;4.20;99.90;;;;;;4918485;29;20467;-71
2022/03/02 07:10:04;;;;;;;0.70;0.60;;;4.30;99.90;;;;;;4911197;29;20184;-71
2022/03/02 07:12:30;;;;;;;0.80;0.70;;;4.30;99.90;;;;;;4899472;29;20941;-72
2022/03/02 07:14:57;;;;;;;0.70;0.50;;;4.40;99.90;;;;;;4899552;29;20443;-72
2022/03/02 07:17:22;;;;;;;0.80;0.80;;;4.50;99.90;;;;;;4899532;29;20512;-72
2022/03/02 07:19:48;;;;;;;1.03;0.93;;;4.50;99.90;;;;;;4903811;29;20558;-72
2022/03/02 07:22:17;;;;;;;3.27;1.77;;;4.60;99.90;;;;;;4917781;29;20199;-72
2022/03/02 07:24:58;;;;;;;0.70;0.60;;;4.70;99.90;;;;;;4918252;29;20513;-73
2022/03/02 07:27:25;;;;;;;8.70;1.67;;;4.80;99.90;;;;;;4918251;29;20479;-72
2022/03/02 07:29:52;;;;;;;3.13;2.93;;;4.90;99.90;;;;;;4916795;29;20435;-72
2022/03/02 07:32:22;;;;;;;0.70;0.50;;;5.00;99.90;;;;;;4917770;29;20428;-72
2022/03/02 07:34:53;;;;;;;1.37;1.27;;;5.10;99.90;;;;;;4917930;29;20407;-72
2022/03/02 07:37:19;;;;;;;1.87;1.13;;;5.20;99.90;;;;;;4917666;29;20421;-72
2022/03/02 07:39:45;;;;;;;1.47;0.70;;;5.30;99.90;;;;;;4917706;29;20530;-72
2022/03/02 07:42:11;;;;;;;0.97;0.87;;;5.50;99.90;;;;;;4917729;29;20431;-73
2022/03/02 07:44:36;;;;;;;0.70;0.60;;;5.70;99.90;;;;;;4918473;29;20232;-72
2022/03/02 07:47:02;;;;;;;0.70;0.50;;;5.80;99.90;;;;;;4931380;28;20598;-72
2022/03/02 07:49:29;;;;;;;0.70;0.60;;;6.00;99.90;;;;;;4930280;28;20191;-72
2022/03/02 07:51:57;;;;;;;2.00;1.10;;;6.20;99.90;;;;;;4915660;29;21032;-72
2022/03/02 07:54:25;;;;;;;1.17;1.07;;;6.40;99.90;;;;;;4917673;29;20428;-72
2022/03/02 07:56:51;;;;;;;2.30;0.80;;;6.60;99.90;;;;;;4917609;29;20924;-72
2022/03/02 07:59:17;;;;;;;2.83;2.73;;;6.90;99.60;;;;;;4932341;28;20459;-72
2022/03/02 08:01:44;;;;;;;0.80;0.70;;;7.10;98.90;;;;;;4908743;29;20179;-72
2022/03/02 08:04:10;;;;;;;1.17;1.07;;;7.60;97.60;;;;;;4914720;29;20432;-73
2022/03/02 08:06:38;;;;;;;0.70;0.50;;;8.10;97.10;;;;;;4917948;29;20416;-72
2022/03/02 08:09:05;;;;;;;0.90;0.80;;;8.70;97.10;;;;;;4932276;28;20446;-73
2022/03/02 08:11:37;;;;;;;0.80;0.70;;;9.40;95.10;;;;;;4917366;29;20408;-73
2022/03/02 08:14:04;;;;;;;2.53;2.40;;;10.20;89.10;;;;;;4915560;29;20414;-73
2022/03/02 08:16:30;;;;;;;1.43;1.33;;;11.00;81.00;;;;;;4915879;29;20518;-73
2022/03/02 08:18:57;;;;;;;1.23;1.07;;;11.90;78.80;;;;;;4914418;29;20506;-73
2022/03/02 08:21:29;;;;;;;1.80;1.23;;;12.60;72.20;;;;;;4898037;29;20409;-73
2022/03/02 08:23:57;;;;;;;1.83;1.47;;;13.30;65.40;;;;;;4896028;29;21146;-73
2022/03/02 08:26:25;;;;;;;1.93;1.53;;;14.00;60.00;;;;;;4899398;29;20420;-73
2022/03/02 08:28:56;;;;;;;3.53;2.43;;;14.60;56.30;;;;;;4917239;29;20423;-73
2022/03/02 08:31:25;;;;;;;4.00;2.23;;;15.10;54.60;;;;;;4914678;29;20431;-73
2022/03/02 08:33:51;;;;;;;0.90;0.73;;;15.70;53.80;;;;;;4902588;29;20428;-73
2022/03/02 08:36:21;;;;;;;6.30;2.27;;;16.30;51.60;;;;;;4915108;29;20431;-73
2022/03/02 08:38:49;;;;;;;2.23;1.87;;;17.10;51.20;;;;;;4916800;29;20803;-73
2022/03/02 08:41:15;;;;;;;2.97;2.73;;;17.80;48.60;;;;;;4916406;29;20404;-73
2022/03/02 08:43:42;;;;;;;3.40;3.20;;;18.30;46.40;;;;;;4916778;29;20520;-73
2022/03/02 08:46:07;;;;;;;2.13;1.90;;;18.80;45.20;;;;;;4915708;29;22350;-73
2022/03/02 08:48:34;;;;;;;3.10;2.90;;;19.40;44.30;;;;;;4916531;29;20418;-73
2022/03/02 08:51:01;;;;;;;2.70;2.30;;;19.90;43.40;;;;;;4916252;29;20160;-74
2022/03/02 08:53:26;;;;;;;2.20;1.23;;;20.60;43.20;;;;;;4914538;29;20447;-74
2022/03/02 08:55:55;;;;;;;4.10;2.07;;;21.20;41.90;;;;;;4915904;29;20424;-74
2022/03/02 08:58:21;;;;;;;3.17;2.87;;;21.70;41.30;;;;;;4913336;29;20172;-74
2022/03/02 09:00:51;;;;;;;2.00;1.80;;;22.30;40.50;;;;;;4915990;29;20937;-73
2022/03/02 09:03:17;;;;;;;3.07;2.13;;;22.80;40.60;;;;;;4915921;29;20434;-74
2022/03/02 09:05:43;;;;;;;2.47;2.23;;;23.30;38.10;;;;;;4915841;29;20506;-72
2022/03/02 09:08:08;;;;;;;1.87;1.77;;;23.70;37.30;;;;;;4915938;29;20785;-71
2022/03/02 09:10:35;;;;;;;1.50;1.40;;;24.10;36.30;;;;;;4930585;28;20175;-71
2022/03/02 09:13:02;;;;;;;1.63;1.53;;;24.40;36.30;;;;;;4930266;28;20321;-71
2022/03/02 09:15:28;;;;;;;4.03;1.90;;;24.70;35.90;;;;;;4901767;29;20432;-74
2022/03/02 09:17:54;;;;;;;2.60;2.07;;;25.00;35.30;;;;;;4908966;29;20930;-73
2022/03/02 09:20:20;;;;;;;1.67;1.53;;;25.20;33.90;;;;;;4897050;29;20800;-72
2022/03/02 09:22:46;;;;;;;2.07;1.87;;;25.30;33.10;;;;;;4896705;29;20550;-72
2022/03/02 09:25:12;;;;;;;3.23;1.90;;;25.30;32.80;;;;;;4909805;29;20182;-72
2022/03/02 09:27:40;;;;;;;1.40;1.20;;;25.40;32.90;;;;;;4915851;29;20761;-74
2022/03/02 09:30:09;;;;;;;2.33;1.40;;;25.50;32.70;;;;;;4915805;29;20295;-74
2022/03/02 09:32:39;;;;;;;3.63;2.00;;;25.60;32.90;;;;;;4915375;29;20495;-74
2022/03/02 09:35:05;;;;;;;2.60;2.03;;;25.90;33.10;;;;;;4926808;28;20424;-72
2022/03/02 09:37:36;;;;;;;2.20;1.70;;;26.20;33.10;;;;;;4911880;29;20428;-72
2022/03/02 09:40:04;;;;;;;2.97;1.77;;;26.50;32.50;;;;;;4916161;29;20499;-73
2022/03/02 09:42:39;;;;;;;3.13;2.50;;;26.80;32.70;;;;;;4915172;29;20475;-72
2022/03/02 09:45:08;;;;;;;2.47;2.27;;;27.00;31.60;;;;;;4915657;29;20427;-72
2022/03/02 09:47:44;;;;;;;2.53;2.33;;;27.10;31.20;;;;;;4914377;29;20415;-72
2022/03/02 09:50:13;;;;;;;4.40;2.80;;;27.50;30.70;;;;;;4915547;29;20771;-72
2022/03/02 09:52:41;;;;;;;2.47;1.87;;;27.40;30.00;;;;;;4915263;29;20797;-72
2022/03/02 09:55:10;;;;;;;4.30;1.93;;;27.40;30.10;;;;;;4915476;29;20427;-72
2022/03/02 09:57:40;;;;;;;2.83;2.07;;;27.40;29.70;;;;;;4914835;29;21017;-73
2022/03/02 10:00:06;;;;;;;2.10;1.90;;;27.50;29.80;;;;;;4915518;29;20535;-73
2022/03/02 10:02:37;;;;;;;2.67;1.80;;;27.90;30.10;;;;;;4913787;29;20436;-73
2022/03/02 10:05:10;;;;;;;3.57;2.30;;;28.00;30.00;;;;;;4915282;29;20430;-72
2022/03/02 10:07:40;;;;;;;4.47;3.37;;;28.20;29.50;;;;;;4910440;29;20443;-73
2022/03/02 10:10:11;;;;;;;7.30;2.70;;;28.60;30.00;;;;;;4911108;29;21228;-73
2022/03/02 10:12:38;;;;;;;1.97;1.77;;;28.90;29.70;;;;;;4911679;29;20780;-73
2022/03/02 10:15:10;;;;;;;3.03;2.80;;;29.20;29.40;;;;;;4911186;29;20424;-73
2022/03/02 10:17:42;;;;;;;2.93;2.63;;;29.60;29.40;;;;;;4914154;29;20428;-73
2022/03/02 10:20:11;;;;;;;2.33;2.00;;;30.10;29.60;;;;;;4915372;29;20412;-73
2022/03/02 10:22:39;;;;;;;2.87;2.67;;;30.50;28.60;;;;;;4915003;29;20517;-73
2022/03/02 10:25:17;;;;;;;2.87;2.30;;;30.90;28.60;;;;;;4914921;29;20431;-73
2022/03/02 10:28:02;;;;;;;3.70;3.33;;;31.30;28.00;;;;;;4915670;29;20908;-73
2022/03/02 10:30:39;;;;;;;2.90;2.53;;;31.60;27.50;;;;;;4914560;29;20928;-73
2022/03/02 10:33:25;;;;;;;1.80;1.70;;;31.80;26.80;;;;;;4914970;29;20430;-73
2022/03/02 10:35:53;;;;;;;1.97;1.80;;;32.00;26.60;;;;;;4915525;29;20952;-73
2022/03/02 10:38:30;;;;;;;3.27;2.73;;;32.30;26.60;;;;;;4915075;29;20478;-73
2022/03/02 10:40:59;;;;;;;3.20;3.00;;;32.60;26.30;;;;;;4900030;29;20789;-73
2022/03/02 10:43:34;;;;;;;1.80;1.70;;;33.10;26.80;;;;;;4896062;29;20796;-73
2022/03/02 10:46:03;;;;;;;2.57;2.10;;;33.50;26.60;;;;;;4896359;29;20403;-73
2022/03/02 10:48:41;;;;;;;1.80;1.70;;;33.90;26.50;;;;;;4894955;29;20870;-73
2022/03/02 10:51:08;;;;;;;3.30;1.70;;;34.30;25.60;;;;;;4909354;29;20482;-73
2022/03/02 10:53:37;;;;;;;3.10;2.67;;;34.80;25.40;;;;;;4903877;29;20459;-73
2022/03/02 10:56:04;;;;;;;1.63;1.53;;;35.30;25.30;;;;;;4899169;29;20407;-73
2022/03/02 10:58:33;;;;;;;2.40;2.20;;;35.50;24.70;;;;;;4907998;29;20984;-73
2022/03/02 11:01:00;;;;;;;1.80;1.70;;;35.90;24.40;;;;;;4918542;29;20993;-73
2022/03/02 11:03:37;;;;;;;2.80;2.47;;;36.20;24.30;;;;;;4917388;29;20590;-73
2022/03/02 11:06:08;;;;;;;4.23;2.13;;;36.70;24.80;;;;;;4918521;29;20403;-73
2022/03/02 11:08:35;;;;;;;2.10;1.90;;;37.00;24.00;;;;;;4918353;29;21032;-73
2022/03/02 11:11:02;;;;;;;2.83;1.80;;;37.30;23.70;;;;;;4916930;29;20429;-74
2022/03/02 11:13:28;;;;;;;3.10;2.13;;;37.60;23.60;;;;;;4932346;28;20443;-73
2022/03/02 11:15:57;;;;;;;2.90;2.27;;;38.00;23.40;;;;;;4933528;28;20459;-73
2022/03/02 11:18:35;;;;;;;4.60;2.10;;;38.30;23.00;;;;;;4917973;29;20420;-73
2022/03/02 11:21:06;;;;;;;1.80;1.70;;;38.40;23.20;;;;;;4917001;29;20419;-73
2022/03/02 11:23:42;;;;;;;1.77;1.60;;;38.80;23.00;;;;;;4918208;29;20977;-73
2022/03/02 11:26:14;;;;;;;2.63;2.43;;;39.20;22.90;;;;;;4917678;29;20560;-73
2022/03/02 11:28:45;;;;;;;3.10;2.17;;;39.30;22.80;;;;;;4917005;29;20463;-73
2022/03/02 11:31:10;;;;;;;2.30;1.80;;;39.60;23.00;;;;;;4918055;29;20432;-73
2022/03/02 11:33:36;;;;;;;2.43;2.07;;;40.00;23.10;;;;;;4932721;28;20436;-73
2022/03/02 11:36:12;;;;;;;2.80;2.13;;;40.20;22.10;;;;;;4918268;29;20218;-73
2022/03/02 11:38:41;;;;;;;2.17;1.97;;;40.40;22.00;;;;;;4916713;29;20431;-73
2022/03/02 11:41:09;;;;;;;2.07;1.93;;;40.50;21.80;;;;;;4917919;29;20424;-73
2022/03/02 11:43:35;;;;;;;2.87;2.60;;;40.70;21.60;;;;;;4932405;28;20496;-73
2022/03/02 11:46:06;;;;;;;2.10;2.00;;;40.70;21.40;;;;;;4929200;28;20436;-73
2022/03/02 11:48:42;;;;;;;4.90;2.33;;;40.40;21.60;;;;;;4899311;29;20946;-73
2022/03/02 11:51:13;;;;;;;3.60;2.90;;;40.30;21.50;;;;;;4911460;29;20431;-73
2022/03/02 11:53:58;;;;;;;2.70;2.43;;;39.60;21.20;;;;;;4906221;29;20447;-73
2022/03/02 11:56:27;;;;;;;2.30;2.10;;;39.20;21.40;;;;;;4917628;29;20392;-73
2022/03/02 11:59:16;;;;;;;2.83;2.53;;;39.00;21.40;;;;;;4904164;29;20432;-73
2022/03/02 12:01:50;;;;;;;2.10;1.90;;;39.00;21.90;;;;;;4898587;29;20412;-73
2022/03/02 12:04:16;;;;;;;2.17;1.97;;;39.30;21.60;;;;;;4906966;29;20435;-73
2022/03/02 12:06:42;;;;;;;2.30;1.87;;;39.40;21.70;;;;;;4916007;29;20777;-73
2022/03/02 12:09:08;;;;;;;3.30;2.00;;;39.40;21.30;;;;;;4917237;29;20729;-73
2022/03/02 12:11:36;;;;;;;2.70;2.50;;;39.30;21.50;;;;;;4917117;29;20673;-73
2022/03/02 12:14:06;;;;;;;2.80;2.47;;;39.30;21.70;;;;;;4911888;29;20428;-73
2022/03/02 12:16:39;;;;;;;3.93;3.53;;;39.40;21.80;;;;;;4917467;29;20510;-73
2022/03/02 12:19:09;;;;;;;2.03;1.83;;;39.80;21.90;;;;;;4917603;29;20408;-73
2022/03/02 12:21:35;;;;;;;2.73;1.87;;;40.20;21.90;;;;;;4917110;29;20478;-73
2022/03/02 12:24:01;;;;;;;4.50;2.23;;;40.50;21.50;;;;;;4917328;29;20407;-73
2022/03/02 12:26:27;;;;;;;2.17;1.97;;;41.00;21.90;;;;;;4928155;28;20188;-73
2022/03/02 12:28:56;;;;;;;3.50;2.97;;;41.60;21.80;;;;;;4898204;29;20456;-73
2022/03/02 12:31:32;;;;;;;2.20;2.00;;;42.10;21.70;;;;;;4898127;29;20184;-73
2022/03/02 12:34:15;;;;;;;3.07;2.77;;;42.30;21.10;;;;;;4898338;29;20431;-73
2022/03/02 12:36:43;;;;;;;2.93;2.37;;;42.70;21.00;;;;;;4915875;29;20933;-73
2022/03/02 12:39:10;;;;;;;2.33;2.23;;;42.80;20.90;;;;;;4916786;29;20452;-73
2022/03/02 12:41:39;;;;;;;2.50;2.30;;;43.10;20.80;;;;;;4915446;29;20479;-73
2022/03/02 12:44:05;;;;;;;2.40;2.20;;;43.60;20.80;;;;;;4916951;29;20415;-73
2022/03/02 12:46:33;;;;;;;2.20;2.00;;;43.40;20.10;;;;;;4917018;29;20428;-73
2022/03/02 12:49:00;;;;;;;2.67;2.47;;;43.60;20.60;;;;;;4916549;29;20455;-74
2022/03/02 12:51:28;;;;;;;2.40;2.30;;;43.90;20.70;;;;;;4916256;29;20780;-74
2022/03/02 12:53:53;;;;;;;3.00;2.30;;;44.40;20.70;;;;;;4908421;29;20425;-75
2022/03/02 12:56:19;;;;;;;3.00;2.33;;;44.40;20.40;;;;;;4900607;29;20435;-75
2022/03/02 12:58:45;;;;;;;2.70;2.23;;;44.40;20.20;;;;;;4916400;29;20172;-73